createdAt,value
2023-02-09T00:01:32.428Z,103242.72
2023-02-09T00:04:02.837Z,103267.63
2023-02-09T00:06:30.360Z,103258.75
2023-02-09T00:09:01.009Z,103267.69
2023-02-09T00:11:48.820Z,103178.06
2023-02-09T00:14:19.702Z,103271.31
2023-02-09T00:16:50.353Z,103273.09
2023-02-09T00:19:18.152Z,103250.91
2023-02-09T00:21:47.639Z,103267.75
2023-02-09T00:24:18.265Z,103252.72
2023-02-09T00:26:45.007Z,103254.50
2023-02-09T00:29:12.330Z,103259.81
2023-02-09T00:31:39.416Z,103266.06
2023-02-09T00:34:06.947Z,103277.69
2023-02-09T00:36:33.648Z,103275.03
2023-02-09T00:39:02.712Z,103242.22
2023-02-09T00:41:47.936Z,103274.25
2023-02-09T00:44:17.050Z,103282.25
2023-02-09T00:46:43.690Z,103292.09
2023-02-09T00:49:10.368Z,103284.94
2023-02-09T00:51:36.978Z,103287.63
2023-02-09T00:54:04.163Z,103282.34
2023-02-09T00:56:30.873Z,103287.72
2023-02-09T00:58:57.485Z,103246.84
2023-02-09T01:01:24.240Z,103250.41
2023-02-09T01:03:50.810Z,103261.03
2023-02-09T01:06:19.636Z,103277.13
2023-02-09T01:08:48.678Z,103275.25
2023-02-09T01:11:18.464Z,103268.19
2023-02-09T01:13:46.395Z,103277.13
2023-02-09T01:16:16.246Z,103271.78
2023-02-09T01:18:45.612Z,103278.94
2023-02-09T01:21:16.907Z,103270.00
2023-02-09T01:23:43.986Z,103203.50
2023-02-09T01:26:13.222Z,103272.69
2023-02-09T01:28:40.407Z,103277.19
2023-02-09T01:31:25.618Z,103270.97
2023-02-09T01:33:54.388Z,103257.66
2023-02-09T01:36:21.633Z,103247.88
2023-02-09T01:38:48.431Z,103262.13
2023-02-09T01:41:15.151Z,103276.34
2023-02-09T01:44:00.122Z,103274.56
2023-02-09T01:46:32.261Z,103265.69
2023-02-09T01:49:04.611Z,103271.94
2023-02-09T01:51:36.618Z,103112.13
2023-02-09T01:54:10.456Z,103219.53
2023-02-09T01:56:40.865Z,103259.47
2023-02-09T01:59:09.470Z,103259.50
2023-02-09T02:01:37.888Z,103259.50
2023-02-09T02:04:05.538Z,103253.28
2023-02-09T02:06:32.598Z,103261.31
2023-02-09T02:09:03.402Z,103260.38
2023-02-09T02:11:30.017Z,103258.59
2023-02-09T02:14:02.760Z,103256.84
2023-02-09T02:16:41.325Z,103248.78
2023-02-09T02:19:26.287Z,103247.00
2023-02-09T02:22:20.825Z,103251.47
2023-02-09T02:25:00.816Z,103247.91
2023-02-09T02:27:39.296Z,103213.25
2023-02-09T02:30:33.366Z,103245.19
2023-02-09T02:33:20.900Z,103233.56
2023-02-09T02:35:55.440Z,103232.69
2023-02-09T02:38:41.563Z,103230.88
2023-02-09T02:41:51.069Z,103235.38
2023-02-09T02:44:20.152Z,103201.59
2023-02-09T02:46:50.748Z,103212.28
2023-02-09T02:49:34.716Z,103211.31
2023-02-09T02:52:05.673Z,103188.28
2023-02-09T02:54:40.838Z,103219.38
2023-02-09T02:57:21.160Z,103195.41
2023-02-09T03:00:00.940Z,103063.22
2023-02-09T03:02:39.112Z,103222.97
2023-02-09T03:05:07.322Z,103223.00
2023-02-09T03:07:34.252Z,103225.69
2023-02-09T03:10:03.079Z,103224.78
2023-02-09T03:12:53.801Z,103193.66
2023-02-09T03:15:40.677Z,103191.00
2023-02-09T03:18:14.220Z,103214.09
2023-02-09T03:21:03.700Z,103221.25
2023-02-09T03:23:44.774Z,103217.72
2023-02-09T03:26:16.851Z,103227.56
2023-02-09T03:28:52.508Z,103207.97
2023-02-09T03:31:23.093Z,103196.38
2023-02-09T03:33:50.585Z,103207.03
2023-02-09T03:36:19.332Z,103183.03
2023-02-09T03:38:46.100Z,103204.34
2023-02-09T03:41:12.721Z,103205.22
2023-02-09T03:44:00.283Z,103197.22
2023-02-09T03:46:26.918Z,103187.50
2023-02-09T03:48:53.607Z,103198.13
2023-02-09T03:51:20.208Z,103189.19
2023-02-09T03:53:47.282Z,103174.06
2023-02-09T03:56:13.843Z,103168.72
2023-02-09T03:58:40.400Z,103174.06
2023-02-09T04:01:09.412Z,103152.72
2023-02-09T04:03:37.194Z,103154.44
2023-02-09T04:06:04.342Z,103158.84
2023-02-09T04:08:33.697Z,103122.44
2023-02-09T04:11:00.378Z,103149.03
2023-02-09T04:13:26.975Z,103165.97
2023-02-09T04:15:53.794Z,103147.31
2023-02-09T04:18:20.838Z,103141.09
2023-02-09T04:20:48.278Z,103157.97
2023-02-09T04:23:19.001Z,103161.50
2023-02-09T04:25:49.536Z,103166.84
2023-02-09T04:28:18.538Z,103158.81
2023-02-09T04:30:51.355Z,103157.97
2023-02-09T04:33:17.927Z,103153.47
2023-02-09T04:35:45.576Z,103157.94
2023-02-09T04:38:12.320Z,103152.59
2023-02-09T04:40:38.849Z,103157.00
2023-02-09T04:43:05.368Z,103112.63
2023-02-09T04:45:32.027Z,103150.78
2023-02-09T04:48:00.929Z,103148.16
2023-02-09T04:50:27.489Z,103130.41
2023-02-09T04:52:54.039Z,103142.84
2023-02-09T04:55:22.979Z,103165.97
2023-02-09T04:58:08.007Z,103094.97
2023-02-09T05:00:34.832Z,103164.19
2023-02-09T05:03:01.548Z,103167.72
2023-02-09T05:05:30.828Z,103158.88
2023-02-09T05:07:57.376Z,103170.41
2023-02-09T05:10:23.961Z,103170.50
2023-02-09T05:12:50.567Z,103171.34
2023-02-09T05:15:17.146Z,103176.69
2023-02-09T05:17:43.714Z,103139.38
2023-02-09T05:20:10.926Z,103144.78
2023-02-09T05:22:38.352Z,103182.06
2023-02-09T05:25:05.234Z,103185.63
2023-02-09T05:27:34.353Z,103174.19
2023-02-09T05:30:03.573Z,103175.94
2023-02-09T05:32:30.147Z,103197.28
2023-02-09T05:34:56.757Z,103183.88
2023-02-09T05:37:23.396Z,103188.31
2023-02-09T05:39:52.873Z,103183.88
2023-02-09T05:42:19.764Z,103184.75
2023-02-09T05:44:50.719Z,103183.88
2023-02-09T05:47:21.022Z,103180.28
2023-02-09T05:49:47.856Z,103163.44
2023-02-09T05:52:17.856Z,103174.06
2023-02-09T05:54:46.487Z,103182.06
2023-02-09T05:57:13.367Z,103169.53
2023-02-09T05:59:40.113Z,103122.44
2023-02-09T06:02:09.770Z,103152.56
2023-02-09T06:04:38.874Z,103152.59
2023-02-09T06:07:05.462Z,103147.28
2023-02-09T06:09:32.095Z,103132.19
2023-02-09T06:11:58.741Z,103144.59
2023-02-09T06:14:25.641Z,103142.78
2023-02-09T06:16:52.282Z,103146.31
2023-02-09T06:19:20.964Z,103164.13
2023-02-09T06:21:47.740Z,103175.72
2023-02-09T06:24:15.566Z,103187.31
2023-02-09T06:26:42.423Z,103166.91
2023-02-09T06:29:09.443Z,103197.16
2023-02-09T06:31:38.749Z,103181.16
2023-02-09T06:34:05.898Z,103197.16
2023-02-09T06:36:32.700Z,103201.63
2023-02-09T06:38:59.401Z,103194.59
2023-02-09T06:41:26.101Z,103193.63
2023-02-09T06:43:55.157Z,103190.13
2023-02-09T06:46:21.801Z,103215.03
2023-02-09T06:48:48.812Z,103225.75
2023-02-09T06:51:16.729Z,103222.22
2023-02-09T06:53:46.405Z,103144.13
2023-02-09T06:56:13.802Z,103242.72
2023-02-09T06:58:42.896Z,103235.59
2023-02-09T07:01:12.694Z,103231.16
2023-02-09T07:03:39.545Z,103235.59
2023-02-09T07:06:11.866Z,103235.56
2023-02-09T07:08:39.310Z,103138.84
2023-02-09T07:11:08.914Z,103237.34
2023-02-09T07:13:36.359Z,103161.88
2023-02-09T07:16:04.983Z,103234.66
2023-02-09T07:18:32.048Z,103253.38
2023-02-09T07:21:01.790Z,103226.72
2023-02-09T07:23:29.547Z,103251.50
2023-02-09T07:25:56.396Z,103237.25
2023-02-09T07:28:25.508Z,103266.63
2023-02-09T07:30:53.011Z,103222.09
2023-02-09T07:33:21.124Z,103244.19
2023-02-09T07:35:48.677Z,103244.13
2023-02-09T07:38:15.482Z,103204.97
2023-02-09T07:40:46.497Z,103212.00
2023-02-09T07:43:14.135Z,103251.09
2023-02-09T07:45:41.479Z,103221.69
2023-02-09T07:48:10.426Z,103234.03
2023-02-09T07:50:39.756Z,103245.50
2023-02-09T07:53:08.945Z,103141.59
2023-02-09T07:55:35.583Z,103232.84
2023-02-09T07:58:02.163Z,103225.72
2023-02-09T08:00:28.769Z,103216.69
2023-02-09T08:02:58.556Z,103197.97
2023-02-09T08:05:35.390Z,103228.03
2023-02-09T08:08:01.949Z,103223.47
2023-02-09T08:10:28.632Z,103223.34
2023-02-09T08:13:03.598Z,103198.59
2023-02-09T08:15:53.009Z,103244.56
2023-02-09T08:18:27.497Z,103235.53
2023-02-09T08:20:56.676Z,103227.34
2023-02-09T08:23:32.693Z,103212.16
2023-02-09T08:26:02.943Z,103216.34
2023-02-09T08:28:43.260Z,103172.72
2023-02-09T08:31:19.007Z,103211.66
2023-02-09T08:33:48.644Z,103109.59
2023-02-09T08:36:16.977Z,103202.50
2023-02-09T08:38:44.681Z,103202.50
2023-02-09T08:41:13.804Z,103215.66
2023-02-09T08:43:46.764Z,103211.91
2023-02-09T08:46:16.753Z,103176.34
2023-02-09T08:48:45.803Z,103210.69
2023-02-09T08:51:14.030Z,103184.78
2023-02-09T08:53:41.380Z,103203.22
2023-02-09T08:56:08.818Z,103199.59
2023-02-09T08:58:35.434Z,103197.69
2023-02-09T09:01:05.571Z,103214.38
2023-02-09T09:03:32.926Z,103222.47
2023-02-09T09:06:05.628Z,103216.84
2023-02-09T09:08:34.568Z,103193.63
2023-02-09T09:11:06.864Z,103228.94
2023-02-09T09:13:35.974Z,103225.22
2023-02-09T09:16:05.344Z,103231.16
2023-02-09T09:18:32.087Z,103236.25
2023-02-09T09:21:00.893Z,103213.88
2023-02-09T09:23:27.485Z,103228.66
2023-02-09T09:25:54.021Z,103129.09
2023-02-09T09:28:20.634Z,103204.38
2023-02-09T09:30:47.481Z,103200.16
2023-02-09T09:33:14.101Z,103200.56
2023-02-09T09:35:40.719Z,103212.50
2023-02-09T09:38:09.922Z,103212.38
2023-02-09T09:40:41.486Z,103109.69
2023-02-09T09:43:24.367Z,103182.75
2023-02-09T09:45:53.359Z,103231.63
2023-02-09T09:48:24.721Z,103224.53
2023-02-09T09:50:59.617Z,103234.06
2023-02-09T09:53:35.217Z,103224.81
2023-02-09T09:56:08.175Z,103213.84
2023-02-09T09:58:39.196Z,103198.75
2023-02-09T10:01:06.868Z,103204.88
2023-02-09T10:03:35.821Z,103232.06
2023-02-09T10:06:14.728Z,103234.47
2023-02-09T10:08:44.487Z,103236.88
2023-02-09T10:11:13.956Z,103226.06
2023-02-09T10:13:49.608Z,103215.25
2023-02-09T10:16:27.395Z,103232.28
2023-02-09T10:19:00.037Z,103246.28
2023-02-09T10:21:29.895Z,103236.19
2023-02-09T10:24:02.440Z,103240.53
2023-02-09T10:26:35.046Z,103182.41
2023-02-09T10:29:10.797Z,103255.94
2023-02-09T10:31:47.390Z,103234.47
2023-02-09T10:34:16.602Z,103251.06
2023-02-09T10:36:51.247Z,103260.50
2023-02-09T10:39:21.590Z,103258.34
2023-02-09T10:41:54.075Z,103227.25
2023-02-09T10:44:25.549Z,103262.81
2023-02-09T10:47:19.875Z,103259.47
2023-02-09T10:49:53.320Z,103261.44
2023-02-09T10:52:24.399Z,103259.94
2023-02-09T10:55:03.653Z,103269.28
2023-02-09T10:57:38.311Z,103270.03
2023-02-09T11:00:17.235Z,103260.59
2023-02-09T11:02:51.634Z,103253.09
2023-02-09T11:05:21.461Z,103267.28
2023-02-09T11:08:11.108Z,103256.88
2023-02-09T11:10:44.728Z,103264.75
2023-02-09T11:13:22.318Z,103264.22
2023-02-09T11:16:13.798Z,103265.78
2023-02-09T11:18:45.829Z,103265.53
2023-02-09T11:21:18.640Z,103266.22
2023-02-09T11:23:50.049Z,103253.47
2023-02-09T11:26:45.434Z,103264.25
2023-02-09T11:29:32.252Z,103236.38
2023-02-09T11:32:19.426Z,103243.91
2023-02-09T11:35:11.207Z,103249.38
2023-02-09T11:38:03.639Z,103265.47
2023-02-09T11:40:40.011Z,103248.91
2023-02-09T11:43:15.662Z,103270.97
2023-02-09T11:46:01.247Z,103258.97
2023-02-09T11:48:31.678Z,103076.16
2023-02-09T11:51:07.333Z,103265.69
2023-02-09T11:54:03.439Z,103264.25
2023-02-09T11:56:30.701Z,103264.47
2023-02-09T11:58:57.252Z,103259.94
2023-02-09T12:01:34.334Z,103247.03
2023-02-09T12:04:05.798Z,103248.66
2023-02-09T12:06:42.958Z,103133.69
2023-02-09T12:09:15.808Z,103247.69
2023-02-09T12:11:47.321Z,103250.16
2023-02-09T12:14:23.311Z,103255.16
2023-02-09T12:16:59.436Z,103255.03
2023-02-09T12:19:28.933Z,103249.28
2023-02-09T12:21:55.538Z,103248.34
2023-02-09T12:24:42.680Z,103248.00
2023-02-09T12:27:26.673Z,103222.72
2023-02-09T12:29:53.270Z,103212.78
2023-02-09T12:32:41.546Z,103234.50
2023-02-09T12:35:37.263Z,103241.00
2023-02-09T12:38:20.025Z,103242.38
2023-02-09T12:41:02.647Z,103223.06
2023-02-09T12:43:31.506Z,103228.63
2023-02-09T12:46:23.109Z,103227.97
2023-02-09T12:49:01.798Z,103228.19
2023-02-09T12:51:46.689Z,103232.75
2023-02-09T12:54:32.655Z,103229.69
2023-02-09T12:57:14.741Z,103215.59
2023-02-09T12:59:50.871Z,103220.31
2023-02-09T13:02:29.570Z,103219.72
2023-02-09T13:05:17.481Z,103228.09
2023-02-09T13:08:11.524Z,103215.69
2023-02-09T13:10:44.081Z,103219.22
2023-02-09T13:13:10.668Z,103214.91
2023-02-09T13:16:05.027Z,103212.25
2023-02-09T13:19:02.736Z,103203.13
2023-02-09T13:21:47.783Z,103192.34
2023-02-09T13:24:16.339Z,103211.28
2023-02-09T13:26:57.976Z,103205.91
2023-02-09T13:29:30.528Z,103193.88
2023-02-09T13:32:15.706Z,103198.50
2023-02-09T13:34:58.871Z,103197.38
2023-02-09T13:37:49.238Z,103214.44
2023-02-09T13:40:19.118Z,103208.88
2023-02-09T13:43:17.213Z,103211.72
2023-02-09T13:45:49.161Z,103211.28
2023-02-09T13:48:37.737Z,103208.91
2023-02-09T13:51:15.152Z,103196.78
2023-02-09T13:53:54.986Z,103124.69
2023-02-09T13:56:24.981Z,103223.47
2023-02-09T13:58:52.137Z,103228.25
2023-02-09T14:01:28.740Z,103204.56
2023-02-09T14:04:03.414Z,103232.94
2023-02-09T14:06:44.058Z,103244.31
2023-02-09T14:09:31.282Z,103238.69
2023-02-09T14:12:09.721Z,103234.94
2023-02-09T14:15:01.646Z,103225.44
2023-02-09T14:17:30.432Z,103234.41
2023-02-09T14:19:59.429Z,103223.53
2023-02-09T14:22:35.498Z,103240.28
2023-02-09T14:25:14.335Z,103241.06
2023-02-09T14:27:47.926Z,103241.88
2023-02-09T14:30:21.834Z,103244.59
2023-02-09T14:32:53.487Z,103235.53
2023-02-09T14:35:28.819Z,103234.59
2023-02-09T14:38:00.979Z,103231.88
2023-02-09T14:40:27.780Z,103234.59
2023-02-09T14:43:05.793Z,103238.41
2023-02-09T14:45:38.901Z,103237.66
2023-02-09T14:48:29.585Z,103199.88
2023-02-09T14:50:59.562Z,103228.97
2023-02-09T14:53:29.834Z,103239.75
2023-02-09T14:55:59.289Z,103238.97
2023-02-09T14:58:28.855Z,103239.91
2023-02-09T15:00:57.392Z,103240.88
2023-02-09T15:03:26.816Z,103246.22
2023-02-09T15:05:58.861Z,103252.78
2023-02-09T15:08:28.552Z,103248.34
2023-02-09T15:11:24.745Z,103250.34
2023-02-09T15:13:56.540Z,103251.50
2023-02-09T15:16:23.376Z,103256.19
2023-02-09T15:18:50.041Z,103255.56
2023-02-09T15:21:16.589Z,103257.34
2023-02-09T15:23:43.154Z,103264.72
2023-02-09T15:26:16.764Z,103192.59
2023-02-09T15:28:43.578Z,103251.56
2023-02-09T15:31:15.988Z,103240.16
2023-02-09T15:33:43.037Z,103264.19
2023-02-09T15:36:20.637Z,103243.25
2023-02-09T15:38:47.762Z,103276.09
2023-02-09T15:41:35.603Z,103282.63
2023-02-09T15:44:39.523Z,103286.44
2023-02-09T15:47:25.056Z,103267.88
2023-02-09T15:49:51.725Z,103271.53
2023-02-09T15:52:18.805Z,103279.84
2023-02-09T15:54:51.314Z,103265.66
2023-02-09T15:57:20.336Z,103304.00
2023-02-09T15:59:51.659Z,103295.13
2023-02-09T16:02:19.470Z,103303.19
2023-02-09T16:04:46.516Z,103306.88
2023-02-09T16:07:15.994Z,103257.63
2023-02-09T16:09:43.806Z,103311.38
2023-02-09T16:12:13.764Z,103301.59
2023-02-09T16:14:42.682Z,103290.69
2023-02-09T16:17:09.358Z,103295.13
2023-02-09T16:19:35.959Z,103305.97
2023-02-09T16:22:06.828Z,103275.94
2023-02-09T16:24:41.642Z,103311.50
2023-02-09T16:27:21.816Z,103312.63
2023-02-09T16:29:48.454Z,103318.94
2023-02-09T16:32:22.045Z,103324.31
2023-02-09T16:34:49.683Z,103320.81
2023-02-09T16:37:19.788Z,103324.50
2023-02-09T16:39:46.433Z,103330.03
2023-02-09T16:42:17.385Z,103324.03
2023-02-09T16:44:46.074Z,103311.72
2023-02-09T16:47:20.537Z,103309.56
2023-02-09T16:50:00.920Z,103353.22
2023-02-09T16:52:30.282Z,103327.69
2023-02-09T16:54:59.431Z,103356.00
2023-02-09T16:57:27.697Z,103360.59
2023-02-09T16:59:54.575Z,103363.38
2023-02-09T17:02:42.548Z,103358.81
2023-02-09T17:05:20.893Z,103370.69
2023-02-09T17:07:55.021Z,103369.78
2023-02-09T17:10:25.808Z,103362.78
2023-02-09T17:12:53.775Z,103373.47
2023-02-09T17:15:31.795Z,103357.72
2023-02-09T17:18:06.086Z,103382.66
2023-02-09T17:20:40.887Z,103391.69
2023-02-09T17:23:10.265Z,103383.72
2023-02-09T17:25:36.844Z,103396.38
2023-02-09T17:28:03.495Z,103397.22
2023-02-09T17:30:33.013Z,103408.00
2023-02-09T17:33:02.627Z,103395.44
2023-02-09T17:35:57.912Z,103403.50
2023-02-09T17:38:25.485Z,103414.34
2023-02-09T17:40:56.852Z,103392.19
2023-02-09T17:43:29.766Z,103416.19
2023-02-09T17:45:56.541Z,103353.34
2023-02-09T17:48:23.637Z,103395.78
2023-02-09T17:50:52.889Z,103404.72
2023-02-09T17:53:24.843Z,103415.28
2023-02-09T17:55:52.284Z,103379.97
2023-02-09T17:58:19.006Z,103399.47
2023-02-09T18:00:45.919Z,103400.38
2023-02-09T18:03:18.089Z,103397.78
2023-02-09T18:05:47.246Z,103413.81
2023-02-09T18:08:14.102Z,103397.91
2023-02-09T18:10:40.655Z,103423.47
2023-02-09T18:13:07.259Z,103430.69
2023-02-09T18:15:40.529Z,103409.34
2023-02-09T18:18:07.114Z,103435.28
2023-02-09T18:20:34.161Z,103432.63
2023-02-09T18:23:04.129Z,103445.03
2023-02-09T18:25:34.057Z,103443.31
2023-02-09T18:28:01.215Z,103438.94
2023-02-09T18:30:33.862Z,103439.75
2023-02-09T18:33:04.175Z,103443.34
2023-02-09T18:35:34.563Z,103454.19
2023-02-09T18:38:07.455Z,103439.75
2023-02-09T18:40:34.657Z,103456.84
2023-02-09T18:43:02.744Z,103449.66
2023-02-09T18:45:33.210Z,103465.00
2023-02-09T18:48:00.555Z,103462.34
2023-02-09T18:50:30.581Z,103460.44
2023-02-09T18:53:02.282Z,103447.16
2023-02-09T18:55:32.809Z,103461.38
2023-02-09T18:58:01.994Z,103466.78
2023-02-09T19:00:29.487Z,103395.16
2023-02-09T19:02:59.927Z,103466.84
2023-02-09T19:05:34.699Z,103448.13
2023-02-09T19:08:01.401Z,103455.41
2023-02-09T19:10:29.544Z,103422.78
2023-02-09T19:12:56.171Z,103457.41
2023-02-09T19:15:25.725Z,103460.28
2023-02-09T19:17:56.829Z,103468.38
2023-02-09T19:20:28.829Z,103416.44
2023-02-09T19:22:55.876Z,103479.31
2023-02-09T19:25:24.590Z,103459.91
2023-02-09T19:27:52.668Z,103467.13
2023-02-09T19:30:25.105Z,103470.75
2023-02-09T19:32:53.364Z,103485.16
2023-02-09T19:35:22.585Z,103485.25
2023-02-09T19:37:53.662Z,103494.38
2023-02-09T19:40:27.594Z,103508.31
2023-02-09T19:42:55.664Z,103478.38
2023-02-09T19:45:22.677Z,103491.19
2023-02-09T19:47:49.258Z,103488.03
2023-02-09T19:50:16.219Z,103475.84
2023-02-09T19:52:47.570Z,103509.13
2023-02-09T19:55:14.895Z,103504.13
2023-02-09T19:57:44.226Z,103524.06
2023-02-09T20:00:15.124Z,103502.25
2023-02-09T20:02:41.784Z,103488.25
2023-02-09T20:05:08.549Z,103484.91
2023-02-09T20:07:35.260Z,103520.66
2023-02-09T20:10:01.928Z,103510.47
2023-02-09T20:12:31.308Z,103539.91
2023-02-09T20:14:57.874Z,103538.31
2023-02-09T20:17:25.259Z,103533.25
2023-02-09T20:19:51.880Z,103495.91
2023-02-09T20:22:18.654Z,103519.06
2023-02-09T20:24:47.481Z,103509.47
2023-02-09T20:27:18.681Z,103519.53
2023-02-09T20:29:45.367Z,103532.94
2023-02-09T20:32:12.208Z,103532.19
2023-02-09T20:34:43.557Z,103543.88
2023-02-09T20:37:10.507Z,103528.13
2023-02-09T20:39:37.088Z,103549.59
2023-02-09T20:42:22.549Z,103529.25
2023-02-09T20:45:07.472Z,103547.22
2023-02-09T20:47:34.102Z,103557.25
2023-02-09T20:50:00.888Z,103549.38
2023-02-09T20:52:29.121Z,103554.78
2023-02-09T20:54:56.162Z,103546.03
2023-02-09T20:57:29.622Z,103544.34
2023-02-09T21:00:00.694Z,103552.53
2023-02-09T21:02:28.023Z,103564.25
2023-02-09T21:04:56.944Z,103549.97
2023-02-09T21:07:28.283Z,103554.56
2023-02-09T21:09:55.882Z,103427.97
2023-02-09T21:12:22.874Z,103566.47
2023-02-09T21:14:52.227Z,103544.31
2023-02-09T21:17:22.776Z,103572.88
2023-02-09T21:19:49.301Z,103573.88
2023-02-09T21:22:16.039Z,103542.81
2023-02-09T21:24:43.275Z,103550.97
2023-02-09T21:27:09.874Z,103551.06
2023-02-09T21:29:36.717Z,103552.09
2023-02-09T21:32:05.905Z,103505.13
2023-02-09T21:34:35.837Z,103578.91
2023-02-09T21:37:07.917Z,103575.41
2023-02-09T21:39:34.575Z,103587.16
2023-02-09T21:42:19.764Z,103560.69
2023-02-09T21:44:48.586Z,103567.03
2023-02-09T21:47:18.160Z,103595.53
2023-02-09T21:49:44.794Z,103604.56
2023-02-09T21:52:11.361Z,103598.41
2023-02-09T21:54:40.205Z,103597.59
2023-02-09T21:57:06.803Z,103590.47
2023-02-09T21:59:33.837Z,103593.38
2023-02-09T22:02:00.408Z,103606.84
2023-02-09T22:04:29.330Z,103584.66
2023-02-09T22:06:55.987Z,103603.41
2023-02-09T22:09:25.406Z,103587.44
2023-02-09T22:11:52.097Z,103583.03
2023-02-09T22:14:18.730Z,103599.13
2023-02-09T22:16:46.735Z,103587.63
2023-02-09T22:19:15.817Z,103597.44
2023-02-09T22:21:42.420Z,103581.41
2023-02-09T22:24:16.537Z,103569.03
2023-02-09T22:26:49.564Z,103585.03
2023-02-09T22:29:16.934Z,103582.41
2023-02-09T22:31:44.130Z,103587.88
2023-02-09T22:34:11.489Z,103591.50
2023-02-09T22:36:40.357Z,103592.47
2023-02-09T22:39:09.678Z,103582.72
2023-02-09T22:41:36.507Z,103573.94
2023-02-09T22:44:06.566Z,103581.97
2023-02-09T22:46:38.389Z,103578.50
2023-02-09T22:49:12.783Z,103588.31
2023-02-09T22:51:39.338Z,103552.84
2023-02-09T22:54:06.351Z,103594.72
2023-02-09T22:56:35.597Z,103586.78
2023-02-09T22:59:02.282Z,103562.88
2023-02-09T23:01:29.554Z,103585.16
2023-02-09T23:03:56.479Z,103594.97
2023-02-09T23:06:26.978Z,103595.88
2023-02-09T23:08:59.835Z,103600.38
2023-02-09T23:11:30.865Z,103550.81
2023-02-09T23:14:13.697Z,103613.97
2023-02-09T23:16:42.356Z,103597.09
2023-02-09T23:19:13.183Z,103611.41
2023-02-09T23:21:42.961Z,103614.06
2023-02-09T23:24:10.474Z,103611.44
2023-02-09T23:26:37.784Z,103615.94
2023-02-09T23:29:06.931Z,103614.19
2023-02-09T23:31:34.344Z,103600.06
2023-02-09T23:34:00.994Z,103625.03
2023-02-09T23:36:31.740Z,103618.78
2023-02-09T23:39:00.849Z,103602.81
2023-02-09T23:41:30.252Z,103581.50
2023-02-09T23:43:57.483Z,103611.75
2023-02-09T23:46:28.889Z,103611.78
2023-02-09T23:48:58.280Z,103613.56
2023-02-09T23:51:30.610Z,103600.31
2023-02-09T23:54:01.671Z,103601.19
2023-02-09T23:56:36.674Z,103604.75
2023-02-09T23:59:11.052Z,103608.50
